createdAt,value
2018-10-01T00:00:05.184Z,19.94
2018-10-01T00:01:05.212Z,19.98
2018-10-01T00:02:05.254Z,19.91
2018-10-01T00:03:05.303Z,19.87
2018-10-01T00:04:05.461Z,19.84
2018-10-01T00:05:05.383Z,19.83
2018-10-01T00:06:05.442Z,19.83
2018-10-01T00:07:05.530Z,19.91
2018-10-01T00:08:05.532Z,19.91
2018-10-01T00:09:05.582Z,19.94
2018-10-01T00:10:05.610Z,19.87
2018-10-01T00:11:05.665Z,19.86
2018-10-01T00:12:05.726Z,19.86
2018-10-01T00:13:05.767Z,19.83
2018-10-01T00:14:05.817Z,19.90
2018-10-01T00:15:05.853Z,19.79
2018-10-01T00:16:05.880Z,19.86
2018-10-01T00:17:05.957Z,19.84
2018-10-01T00:18:05.994Z,19.95
2018-10-01T00:19:06.029Z,19.93
2018-10-01T00:20:06.065Z,19.84
2018-10-01T00:21:06.131Z,19.79
2018-10-01T00:22:06.167Z,19.80
2018-10-01T00:23:06.214Z,19.93
2018-10-01T00:24:06.276Z,19.83
2018-10-01T00:25:06.310Z,19.87
2018-10-01T00:26:06.354Z,19.84
2018-10-01T00:27:06.379Z,19.93
2018-10-01T00:28:06.434Z,19.86
2018-10-01T00:29:06.474Z,19.93
2018-10-01T00:30:06.539Z,19.90
2018-10-01T00:31:06.581Z,19.84
2018-10-01T00:32:06.621Z,19.79
2018-10-01T00:33:06.963Z,19.86
2018-10-01T00:34:06.704Z,19.90
2018-10-01T00:35:06.740Z,19.84
2018-10-01T00:36:06.810Z,19.76
2018-10-01T00:37:06.845Z,19.80
2018-10-01T00:38:06.982Z,19.72
2018-10-01T00:39:06.933Z,19.78
2018-10-01T00:40:06.988Z,19.66
2018-10-01T00:41:07.009Z,19.75
2018-10-01T00:42:07.061Z,19.72
2018-10-01T00:43:07.119Z,19.78
2018-10-01T00:44:07.250Z,19.69
2018-10-01T00:45:07.205Z,19.69
2018-10-01T00:46:07.241Z,19.70
2018-10-01T00:47:07.290Z,19.72
2018-10-01T00:48:07.329Z,19.66
2018-10-01T00:49:07.400Z,19.63
2018-10-01T00:50:07.433Z,19.68
2018-10-01T00:51:07.451Z,19.70
2018-10-01T00:52:07.512Z,19.72
2018-10-01T00:53:07.575Z,19.68
2018-10-01T00:54:07.599Z,19.69
2018-10-01T00:55:07.644Z,19.69
2018-10-01T00:56:07.666Z,19.70
2018-10-01T00:57:07.747Z,19.73
2018-10-01T00:58:07.810Z,19.66
2018-10-01T00:59:07.828Z,19.69
2018-10-01T01:00:07.870Z,19.72
2018-10-01T01:01:07.932Z,19.70
2018-10-01T01:02:07.970Z,19.70
2018-10-01T01:03:08.000Z,19.68
2018-10-01T01:04:08.045Z,19.70
2018-10-01T01:05:08.196Z,19.69
2018-10-01T01:06:08.138Z,19.72
2018-10-01T01:07:08.179Z,19.78
2018-10-01T01:08:08.230Z,19.73
2018-10-01T01:09:08.288Z,19.69
2018-10-01T01:10:08.298Z,19.69
2018-10-01T01:11:08.344Z,19.70
2018-10-01T01:12:08.391Z,19.78
2018-10-01T01:13:08.492Z,19.79
2018-10-01T01:14:08.540Z,19.75
2018-10-01T01:15:08.551Z,19.70
2018-10-01T01:16:08.691Z,19.73
2018-10-01T01:17:08.646Z,19.75
2018-10-01T01:18:08.656Z,19.75
2018-10-01T01:19:08.723Z,19.68
2018-10-01T01:20:08.762Z,19.69
2018-10-01T01:21:08.909Z,19.66
2018-10-01T01:22:08.847Z,19.68
2018-10-01T01:23:08.890Z,19.72
2018-10-01T01:24:08.951Z,19.69
2018-10-01T01:25:09.027Z,19.75
2018-10-01T01:26:09.047Z,19.66
2018-10-01T01:27:09.197Z,19.65
2018-10-01T01:28:09.148Z,19.69
2018-10-01T01:29:09.202Z,19.69
2018-10-01T01:30:09.264Z,19.65
2018-10-01T01:31:09.246Z,19.66
2018-10-01T01:32:09.313Z,19.68
2018-10-01T01:33:09.361Z,19.65
2018-10-01T01:34:09.385Z,19.68
2018-10-01T01:35:09.452Z,19.69
2018-10-01T01:36:09.483Z,19.66
2018-10-01T01:37:09.562Z,19.68
2018-10-01T01:38:09.566Z,19.68
2018-10-01T01:39:09.625Z,19.68
2018-10-01T01:40:09.664Z,19.65
2018-10-01T01:41:09.718Z,19.66
2018-10-01T01:42:09.740Z,19.65
2018-10-01T01:43:09.782Z,19.73
2018-10-01T01:44:09.834Z,19.68
2018-10-01T01:45:09.909Z,19.75
2018-10-01T01:46:09.935Z,19.63
2018-10-01T01:47:09.974Z,19.75
2018-10-01T01:48:10.067Z,19.70
2018-10-01T01:49:10.205Z,19.72
2018-10-01T01:50:10.119Z,19.73
2018-10-01T01:51:10.165Z,19.69
2018-10-01T01:52:10.231Z,19.69
2018-10-01T01:53:10.261Z,19.69
2018-10-01T01:54:10.309Z,19.66
2018-10-01T01:55:10.351Z,19.68
2018-10-01T01:56:10.404Z,19.68
2018-10-01T01:57:10.433Z,19.69
2018-10-01T01:58:10.477Z,19.69
2018-10-01T01:59:10.515Z,19.61
2018-10-01T02:00:10.554Z,19.66
2018-10-01T02:01:10.621Z,19.63
2018-10-01T02:02:10.656Z,19.63
2018-10-01T02:03:10.705Z,19.58
2018-10-01T02:04:10.743Z,19.50
2018-10-01T02:05:10.890Z,19.61
2018-10-01T02:06:10.851Z,19.53
2018-10-01T02:07:10.870Z,19.54
2018-10-01T02:08:10.921Z,19.55
2018-10-01T02:09:10.976Z,19.60
2018-10-01T02:10:11.002Z,19.57
2018-10-01T02:11:11.071Z,19.60
2018-10-01T02:12:11.118Z,19.57
2018-10-01T02:13:11.166Z,19.57
2018-10-01T02:14:11.207Z,19.42
2018-10-01T02:15:11.248Z,19.53
2018-10-01T02:16:11.402Z,19.57
2018-10-01T02:17:11.380Z,19.60
2018-10-01T02:18:11.368Z,19.63
2018-10-01T02:19:11.414Z,19.53
2018-10-01T02:20:11.470Z,19.53
2018-10-01T02:21:11.807Z,19.58
2018-10-01T02:22:11.612Z,19.57
2018-10-01T02:23:11.590Z,19.57
2018-10-01T02:24:11.644Z,19.43
2018-10-01T02:25:11.686Z,19.54
2018-10-01T02:26:11.734Z,19.55
2018-10-01T02:27:11.787Z,19.61
2018-10-01T02:28:11.821Z,19.65
2018-10-01T02:29:11.861Z,19.54
2018-10-01T02:30:11.968Z,19.63
2018-10-01T02:31:11.969Z,19.69
2018-10-01T02:32:11.993Z,19.65
2018-10-01T02:33:12.060Z,19.66
2018-10-01T02:34:12.109Z,19.68
2018-10-01T02:35:12.141Z,19.70
2018-10-01T02:36:12.176Z,19.69
2018-10-01T02:37:12.241Z,19.65
2018-10-01T02:38:12.290Z,19.70
2018-10-01T02:39:12.380Z,19.70
2018-10-01T02:40:12.375Z,19.69
2018-10-01T02:41:12.451Z,19.69
2018-10-01T02:42:12.565Z,19.65
2018-10-01T02:43:12.488Z,19.61
2018-10-01T02:44:12.604Z,19.65
2018-10-01T02:45:12.596Z,19.66
2018-10-01T02:46:12.655Z,19.65
2018-10-01T02:47:12.724Z,19.58
2018-10-01T02:48:12.717Z,19.60
2018-10-01T02:49:12.756Z,19.54
2018-10-01T02:50:12.812Z,19.60
2018-10-01T02:51:12.851Z,19.65
2018-10-01T02:52:13.009Z,19.58
2018-10-01T02:53:12.962Z,19.66
2018-10-01T02:54:13.000Z,19.61
2018-10-01T02:55:13.082Z,19.66
2018-10-01T02:56:13.097Z,19.57
2018-10-01T02:57:13.121Z,19.61
2018-10-01T02:58:13.173Z,19.55
2018-10-01T02:59:13.215Z,19.53
2018-10-01T03:00:13.272Z,19.58
2018-10-01T03:01:13.329Z,19.43
2018-10-01T03:02:13.353Z,19.46
2018-10-01T03:03:13.408Z,19.43
2018-10-01T03:04:13.458Z,19.43
2018-10-01T03:05:13.494Z,19.43
2018-10-01T03:06:13.570Z,19.48
2018-10-01T03:07:13.886Z,19.42
2018-10-01T03:08:13.617Z,19.46
2018-10-01T03:09:13.718Z,19.50
2018-10-01T03:10:13.723Z,19.51
2018-10-01T03:11:13.758Z,19.47
2018-10-01T03:12:13.889Z,19.39
2018-10-01T03:13:13.871Z,19.43
2018-10-01T03:14:13.904Z,19.48
2018-10-01T03:15:13.947Z,19.50
2018-10-01T03:16:14.016Z,19.54
2018-10-01T03:17:14.047Z,19.50
2018-10-01T03:18:14.130Z,19.46
2018-10-01T03:19:14.136Z,19.38
2018-10-01T03:20:14.187Z,19.38
2018-10-01T03:21:14.286Z,19.43
2018-10-01T03:22:14.279Z,19.47
2018-10-01T03:23:14.299Z,19.46
2018-10-01T03:24:14.344Z,19.42
2018-10-01T03:25:14.420Z,19.43
2018-10-01T03:26:14.447Z,19.47
2018-10-01T03:27:14.528Z,19.48
2018-10-01T03:28:14.556Z,19.55
2018-10-01T03:29:14.590Z,19.46
2018-10-01T03:30:14.638Z,19.46
2018-10-01T03:31:14.672Z,19.47
2018-10-01T03:32:14.739Z,19.48
2018-10-01T03:33:14.787Z,19.47
2018-10-01T03:34:14.824Z,19.48
2018-10-01T03:35:14.911Z,19.42
2018-10-01T03:36:14.916Z,19.47
2018-10-01T03:37:14.955Z,19.54
2018-10-01T03:38:15.005Z,19.57
2018-10-01T03:39:15.054Z,19.54
2018-10-01T03:40:15.129Z,19.53
2018-10-01T03:41:15.223Z,19.48
2018-10-01T03:42:15.245Z,19.54
2018-10-01T03:43:15.235Z,19.60
2018-10-01T03:44:15.268Z,19.57
2018-10-01T03:45:15.332Z,19.60
2018-10-01T03:46:15.371Z,19.69
2018-10-01T03:47:15.408Z,19.63
2018-10-01T03:48:15.470Z,19.65
2018-10-01T03:49:15.509Z,19.68
2018-10-01T03:50:15.546Z,19.68
2018-10-01T03:51:15.610Z,19.73
2018-10-01T03:52:15.728Z,19.70
2018-10-01T03:53:15.700Z,19.70
2018-10-01T03:54:15.752Z,19.78
2018-10-01T03:55:15.807Z,19.73
2018-10-01T03:56:15.822Z,19.70
2018-10-01T03:57:15.875Z,19.70
2018-10-01T03:58:15.909Z,19.75
2018-10-01T03:59:15.979Z,19.75
2018-10-01T04:00:16.027Z,19.66
2018-10-01T04:01:16.060Z,19.69
2018-10-01T04:02:16.215Z,19.69
2018-10-01T04:03:16.155Z,19.72
2018-10-01T04:04:16.201Z,19.73
2018-10-01T04:05:16.229Z,19.66
2018-10-01T04:06:16.326Z,19.70
2018-10-01T04:07:16.609Z,19.66
2018-10-01T04:08:16.421Z,19.76
2018-10-01T04:09:16.430Z,19.66
2018-10-01T04:10:16.461Z,19.69
2018-10-01T04:11:16.515Z,19.65
2018-10-01T04:12:16.677Z,19.68
2018-10-01T04:13:16.608Z,19.73
2018-10-01T04:14:16.634Z,19.68
2018-10-01T04:15:16.686Z,19.72
2018-10-01T04:16:16.782Z,19.68
2018-10-01T04:17:16.792Z,19.66
2018-10-01T04:18:16.942Z,19.72
2018-10-01T04:19:16.892Z,19.63
2018-10-01T04:20:16.927Z,19.76
2018-10-01T04:21:16.968Z,19.70
2018-10-01T04:22:17.025Z,19.72
2018-10-01T04:23:17.069Z,19.72
2018-10-01T04:24:17.117Z,19.73
2018-10-01T04:25:17.164Z,19.78
2018-10-01T04:26:17.202Z,19.73
2018-10-01T04:27:17.294Z,19.75
2018-10-01T04:28:17.454Z,19.69
2018-10-01T04:29:17.356Z,19.73
2018-10-01T04:30:17.378Z,19.68
2018-10-01T04:31:17.416Z,19.73
2018-10-01T04:32:17.477Z,19.70
2018-10-01T04:33:17.563Z,19.68
2018-10-01T04:34:17.625Z,19.66
2018-10-01T04:35:17.659Z,19.70
2018-10-01T04:36:17.673Z,19.73
2018-10-01T04:37:17.765Z,19.73
2018-10-01T04:38:17.749Z,19.68
2018-10-01T04:39:17.787Z,19.65
2018-10-01T04:40:17.836Z,19.68
2018-10-01T04:41:17.906Z,19.63
2018-10-01T04:42:17.930Z,19.68
2018-10-01T04:43:17.965Z,19.66
2018-10-01T04:44:18.058Z,19.66
2018-10-01T04:45:18.073Z,19.68
2018-10-01T04:46:18.109Z,19.65
2018-10-01T04:47:18.176Z,19.69
2018-10-01T04:48:18.201Z,19.61
2018-10-01T04:49:18.553Z,19.60
2018-10-01T04:50:18.319Z,19.63
2018-10-01T04:51:18.340Z,19.66
2018-10-01T04:52:18.412Z,19.65
2018-10-01T04:53:18.449Z,19.65
2018-10-01T04:54:18.499Z,19.63
2018-10-01T04:55:18.530Z,19.63
2018-10-01T04:56:18.594Z,19.60
2018-10-01T04:57:18.640Z,19.65
2018-10-01T04:58:18.774Z,19.66
2018-10-01T04:59:18.727Z,19.65
2018-10-01T05:00:19.107Z,19.63
2018-10-01T05:01:18.859Z,19.61
2018-10-01T05:02:18.843Z,19.63
2018-10-01T05:03:18.905Z,19.58
2018-10-01T05:04:18.981Z,19.63
2018-10-01T05:05:19.004Z,19.69
2018-10-01T05:06:19.067Z,19.70
2018-10-01T05:07:19.130Z,19.66
2018-10-01T05:08:19.169Z,19.63
2018-10-01T05:09:19.199Z,19.63
2018-10-01T05:10:19.236Z,19.73
2018-10-01T05:11:19.589Z,19.70
2018-10-01T05:12:19.314Z,19.69
2018-10-01T05:13:19.348Z,19.68
2018-10-01T05:14:19.394Z,19.68
2018-10-01T05:15:19.455Z,19.72
2018-10-01T05:16:19.524Z,19.65
2018-10-01T05:17:19.543Z,19.61
2018-10-01T05:18:19.599Z,19.65
2018-10-01T05:19:19.692Z,19.66
2018-10-01T05:20:19.686Z,19.68
2018-10-01T05:21:19.725Z,19.66
2018-10-01T05:22:19.792Z,19.69
2018-10-01T05:23:19.820Z,19.61
2018-10-01T05:24:19.873Z,19.61
2018-10-01T05:25:19.926Z,19.61
2018-10-01T05:26:20.004Z,19.63
2018-10-01T05:27:20.072Z,19.60
2018-10-01T05:28:20.040Z,19.61
2018-10-01T05:29:20.162Z,19.55
2018-10-01T05:30:20.140Z,19.58
2018-10-01T05:31:20.181Z,19.58
2018-10-01T05:32:20.346Z,19.53
2018-10-01T05:33:20.322Z,19.58
2018-10-01T05:34:20.371Z,19.40
2018-10-01T05:35:20.378Z,19.50
2018-10-01T05:36:20.424Z,19.47
2018-10-01T05:37:20.763Z,19.43
2018-10-01T05:38:20.512Z,19.53
2018-10-01T05:39:20.562Z,19.54
2018-10-01T05:40:20.601Z,19.47
2018-10-01T05:41:20.686Z,19.43
2018-10-01T05:42:20.706Z,19.54
2018-10-01T05:43:20.747Z,19.43
2018-10-01T05:44:20.779Z,19.53
2018-10-01T05:45:20.826Z,19.47
2018-10-01T05:46:20.870Z,19.51
2018-10-01T05:47:20.935Z,19.47
2018-10-01T05:48:21.225Z,19.54
2018-10-01T05:49:21.022Z,19.58
2018-10-01T05:50:21.071Z,19.58
2018-10-01T05:51:21.106Z,19.51
2018-10-01T05:52:21.208Z,19.57
2018-10-01T05:53:21.340Z,19.58
2018-10-01T05:54:21.268Z,19.60
2018-10-01T05:55:21.295Z,19.57
2018-10-01T05:56:21.355Z,19.68
2018-10-01T05:57:21.378Z,19.61
2018-10-01T05:58:21.727Z,19.63
2018-10-01T05:59:21.494Z,19.58
2018-10-01T06:00:21.534Z,19.60
2018-10-01T06:01:21.578Z,19.63
2018-10-01T06:02:21.614Z,19.61
2018-10-01T06:03:21.710Z,19.65
2018-10-01T06:04:21.702Z,19.63
2018-10-01T06:05:21.752Z,19.61
2018-10-01T06:06:21.835Z,19.66
2018-10-01T06:07:21.849Z,19.66
2018-10-01T06:08:21.876Z,19.63
2018-10-01T06:09:22.242Z,19.63
2018-10-01T06:10:21.992Z,19.68
2018-10-01T06:11:22.047Z,19.68
2018-10-01T06:12:22.078Z,19.68
2018-10-01T06:13:22.158Z,19.66
2018-10-01T06:14:22.313Z,19.68
2018-10-01T06:15:22.207Z,19.63
2018-10-01T06:16:22.308Z,19.63
2018-10-01T06:17:22.295Z,19.66
2018-10-01T06:18:22.342Z,19.63
2018-10-01T06:19:22.404Z,19.63
2018-10-01T06:20:22.454Z,19.70
2018-10-01T06:21:22.488Z,19.68
2018-10-01T06:22:22.581Z,19.61
2018-10-01T06:23:22.577Z,19.65
2018-10-01T06:24:22.611Z,19.61
2018-10-01T06:25:22.785Z,19.66
2018-10-01T06:26:22.720Z,19.66
2018-10-01T06:27:22.757Z,19.65
2018-10-01T06:28:22.818Z,19.68
2018-10-01T06:29:22.861Z,19.69
2018-10-01T06:30:22.894Z,19.70
2018-10-01T06:31:22.943Z,19.65
2018-10-01T06:32:22.985Z,19.68
2018-10-01T06:33:23.026Z,19.69
2018-10-01T06:34:23.089Z,19.70
2018-10-01T06:35:23.099Z,19.63
2018-10-01T06:36:23.313Z,19.68
2018-10-01T06:37:23.201Z,19.66
2018-10-01T06:38:23.263Z,19.66
2018-10-01T06:39:23.318Z,19.69
2018-10-01T06:40:23.362Z,19.70
2018-10-01T06:41:23.408Z,19.69
2018-10-01T06:42:23.441Z,19.68
2018-10-01T06:43:23.496Z,19.69
2018-10-01T06:44:23.567Z,19.69
2018-10-01T06:45:23.596Z,19.65
2018-10-01T06:46:23.856Z,19.73
2018-10-01T06:47:23.689Z,19.66
2018-10-01T06:48:23.724Z,19.65
2018-10-01T06:49:23.774Z,19.69
2018-10-01T06:50:23.819Z,19.69
2018-10-01T06:51:23.973Z,19.68
2018-10-01T06:52:23.913Z,19.68
2018-10-01T06:53:23.953Z,19.72
2018-10-01T06:54:23.999Z,19.68
2018-10-01T06:55:24.045Z,19.73
2018-10-01T06:56:24.086Z,19.69
2018-10-01T06:57:24.141Z,19.65
2018-10-01T06:58:24.187Z,19.70
2018-10-01T06:59:24.208Z,19.69
2018-10-01T07:00:24.293Z,19.73
2018-10-01T07:01:24.352Z,19.84
2018-10-01T07:02:24.485Z,19.88
2018-10-01T07:03:24.401Z,19.84
2018-10-01T07:04:24.454Z,19.84
2018-10-01T07:05:24.528Z,19.79
2018-10-01T07:06:24.599Z,19.87
2018-10-01T07:07:24.832Z,19.86
2018-10-01T07:08:24.627Z,19.84
2018-10-01T07:09:24.697Z,19.87
2018-10-01T07:10:24.749Z,19.78
2018-10-01T07:11:24.893Z,19.80
2018-10-01T07:12:24.933Z,19.80
2018-10-01T07:13:24.881Z,19.75
2018-10-01T07:14:24.904Z,19.76
2018-10-01T07:15:24.964Z,19.83
2018-10-01T07:16:25.092Z,19.80
2018-10-01T07:17:25.187Z,19.79
2018-10-01T07:18:25.102Z,19.79
2018-10-01T07:19:25.147Z,19.84
2018-10-01T07:20:25.190Z,19.84
2018-10-01T07:21:25.249Z,19.86
2018-10-01T07:22:25.605Z,19.79
2018-10-01T07:23:25.468Z,19.87
2018-10-01T07:24:25.386Z,19.84
2018-10-01T07:25:25.423Z,19.86
2018-10-01T07:26:25.483Z,19.86
2018-10-01T07:27:25.610Z,19.83
2018-10-01T07:28:25.576Z,19.83
2018-10-01T07:29:25.589Z,19.86
2018-10-01T07:30:25.635Z,19.83
2018-10-01T07:31:25.693Z,19.80
2018-10-01T07:32:25.753Z,19.91
2018-10-01T07:33:25.788Z,19.86
2018-10-01T07:34:25.833Z,19.87
2018-10-01T07:35:25.916Z,19.88
2018-10-01T07:36:25.909Z,19.80
2018-10-01T07:37:25.946Z,19.86
2018-10-01T07:38:26.010Z,19.91
2018-10-01T07:39:26.097Z,19.83
2018-10-01T07:40:26.086Z,19.88
2018-10-01T07:41:26.162Z,19.91
2018-10-01T07:42:26.210Z,19.83
2018-10-01T07:43:26.281Z,19.94
2018-10-01T07:44:26.291Z,19.80
2018-10-01T07:45:26.400Z,19.93
2018-10-01T07:46:26.385Z,19.90
2018-10-01T07:47:26.446Z,19.91
2018-10-01T07:48:26.563Z,19.95
2018-10-01T07:49:26.560Z,19.84
2018-10-01T07:50:26.615Z,19.80
2018-10-01T07:51:26.590Z,19.88
2018-10-01T07:52:26.671Z,19.80
2018-10-01T07:53:26.747Z,19.94
2018-10-01T07:54:26.791Z,19.95
2018-10-01T07:55:26.791Z,19.90
2018-10-01T07:56:26.838Z,19.86
2018-10-01T07:57:26.917Z,19.86
2018-10-01T07:58:27.218Z,19.88
2018-10-01T07:59:27.000Z,19.87
2018-10-01T08:00:27.074Z,19.90
2018-10-01T08:01:27.053Z,19.87
2018-10-01T08:02:27.151Z,19.91
2018-10-01T08:03:27.149Z,19.93
2018-10-01T08:04:27.217Z,19.93
2018-10-01T08:05:27.287Z,19.87
2018-10-01T08:06:27.295Z,19.83
2018-10-01T08:07:27.338Z,19.79
2018-10-01T08:08:27.401Z,19.83
2018-10-01T08:09:27.486Z,19.87
2018-10-01T08:10:27.722Z,19.90
2018-10-01T08:11:27.514Z,19.90
2018-10-01T08:12:27.590Z,19.88
2018-10-01T08:13:27.633Z,19.84
2018-10-01T08:14:27.718Z,19.84
2018-10-01T08:15:27.717Z,19.80
2018-10-01T08:16:27.798Z,19.86
2018-10-01T08:17:27.817Z,19.79
2018-10-01T08:18:27.885Z,19.84
2018-10-01T08:19:27.870Z,19.78
2018-10-01T08:20:27.965Z,19.80
2018-10-01T08:21:27.983Z,19.83
2018-10-01T08:22:28.076Z,19.87
2018-10-01T08:23:28.088Z,19.87
2018-10-01T08:24:28.107Z,19.83
2018-10-01T08:25:28.192Z,19.80
2018-10-01T08:26:28.253Z,19.76
2018-10-01T08:27:28.267Z,19.84
2018-10-01T08:28:28.312Z,19.73
2018-10-01T08:29:28.360Z,19.80
2018-10-01T08:30:28.396Z,19.80
2018-10-01T08:31:28.420Z,19.75
2018-10-01T08:32:28.545Z,19.87
2018-10-01T08:33:28.537Z,19.72
2018-10-01T08:34:28.566Z,19.73
2018-10-01T08:35:28.676Z,19.83
2018-10-01T08:36:28.677Z,19.86
2018-10-01T08:37:28.858Z,19.78
2018-10-01T08:38:28.825Z,19.87
2018-10-01T08:39:28.793Z,19.86
2018-10-01T08:40:28.860Z,19.79
2018-10-01T08:41:28.963Z,19.83
2018-10-01T08:42:28.930Z,19.86
2018-10-01T08:43:29.002Z,19.84
2018-10-01T08:44:29.067Z,19.86
2018-10-01T08:45:29.085Z,19.78
2018-10-01T08:46:29.121Z,19.86
2018-10-01T08:47:29.313Z,19.84
2018-10-01T08:48:29.251Z,19.97
2018-10-01T08:49:29.301Z,19.91
2018-10-01T08:50:29.359Z,19.94
2018-10-01T08:51:29.359Z,19.88
2018-10-01T08:52:29.404Z,19.90
2018-10-01T08:53:29.515Z,19.94
2018-10-01T08:54:29.487Z,19.87
2018-10-01T08:55:29.529Z,19.91
2018-10-01T08:56:29.609Z,19.83
2018-10-01T08:57:29.736Z,19.91
2018-10-01T08:58:29.674Z,19.88
2018-10-01T08:59:29.773Z,19.97
2018-10-01T09:00:29.784Z,19.93
2018-10-01T09:01:29.818Z,19.86
2018-10-01T09:02:29.854Z,19.95
2018-10-01T09:03:29.913Z,19.95
2018-10-01T09:04:29.955Z,19.87
2018-10-01T09:05:30.070Z,19.88
2018-10-01T09:06:30.059Z,19.88
2018-10-01T09:07:30.170Z,19.91
2018-10-01T09:08:30.162Z,19.87
2018-10-01T09:09:30.167Z,19.90
2018-10-01T09:10:30.222Z,19.97
2018-10-01T09:11:30.340Z,19.97
2018-10-01T09:12:30.306Z,19.87
2018-10-01T09:13:30.332Z,19.94
2018-10-01T09:14:30.432Z,19.98
2018-10-01T09:15:30.447Z,19.95
2018-10-01T09:16:30.495Z,19.97
2018-10-01T09:17:30.636Z,20.00
2018-10-01T09:18:30.598Z,20.06
2018-10-01T09:19:30.648Z,19.97
2018-10-01T09:20:30.714Z,19.98
2018-10-01T09:21:30.820Z,20.15
2018-10-01T09:22:30.790Z,20.13
2018-10-01T09:23:31.106Z,20.18
2018-10-01T09:24:30.841Z,20.13
2018-10-01T09:25:30.932Z,20.28
2018-10-01T09:26:31.090Z,20.21
2018-10-01T09:27:31.047Z,20.23
2018-10-01T09:28:31.199Z,20.23
2018-10-01T09:29:31.175Z,20.28
2018-10-01T09:30:31.145Z,20.33
2018-10-01T09:31:31.187Z,20.34
2018-10-01T09:32:31.316Z,20.34
2018-10-01T09:33:31.389Z,20.39
2018-10-01T09:34:31.332Z,20.41
2018-10-01T09:35:31.433Z,20.38
2018-10-01T09:36:31.433Z,20.42
2018-10-01T09:37:31.468Z,20.41
2018-10-01T09:38:31.608Z,20.43
2018-10-01T09:39:31.609Z,20.51
2018-10-01T09:40:31.750Z,20.43
2018-10-01T09:41:31.653Z,20.47
2018-10-01T09:42:31.699Z,20.58
2018-10-01T09:43:31.752Z,20.58
2018-10-01T09:44:31.965Z,20.58
2018-10-01T09:45:31.843Z,20.50
2018-10-01T09:46:31.922Z,20.53
2018-10-01T09:47:31.929Z,20.69
2018-10-01T09:48:31.994Z,20.65
2018-10-01T09:49:32.010Z,20.80
2018-10-01T09:50:32.157Z,20.79
2018-10-01T09:51:32.117Z,20.81
2018-10-01T09:52:32.226Z,20.93
2018-10-01T09:53:32.230Z,20.96
2018-10-01T09:54:32.258Z,21.06
2018-10-01T09:55:32.420Z,21.02
2018-10-01T09:56:32.394Z,21.13
2018-10-01T09:57:32.392Z,21.05
2018-10-01T09:58:32.511Z,21.08
2018-10-01T09:59:32.496Z,21.11
2018-10-01T10:00:32.548Z,21.17
2018-10-01T10:01:32.641Z,21.29
2018-10-01T10:02:32.712Z,21.30
2018-10-01T10:03:32.696Z,21.35
2018-10-01T10:04:32.816Z,21.45
2018-10-01T10:05:32.786Z,21.44
2018-10-01T10:06:32.922Z,21.35
2018-10-01T10:07:32.857Z,21.32
2018-10-01T10:08:33.010Z,21.30
2018-10-01T10:09:32.953Z,21.42
2018-10-01T10:10:33.038Z,21.34
2018-10-01T10:11:33.092Z,21.29
2018-10-01T10:12:33.196Z,21.36
2018-10-01T10:13:33.172Z,21.34
2018-10-01T10:14:33.328Z,21.36
2018-10-01T10:15:33.297Z,21.34
2018-10-01T10:16:33.315Z,21.24
2018-10-01T10:17:33.387Z,21.29
2018-10-01T10:18:33.391Z,21.20
2018-10-01T10:19:33.437Z,21.26
2018-10-01T10:20:33.617Z,21.19
2018-10-01T10:21:33.543Z,21.16
2018-10-01T10:22:33.686Z,21.11
2018-10-01T10:23:33.897Z,21.06
2018-10-01T10:24:33.657Z,21.09
2018-10-01T10:25:33.725Z,20.98
2018-10-01T10:26:33.907Z,20.95
2018-10-01T10:27:33.799Z,20.81
2018-10-01T10:28:34.110Z,20.80
2018-10-01T10:29:33.914Z,20.77
2018-10-01T10:30:33.971Z,20.68
2018-10-01T10:31:34.019Z,20.68
2018-10-01T10:32:34.078Z,20.68
2018-10-01T10:33:34.110Z,20.51
2018-10-01T10:34:34.255Z,20.66
2018-10-01T10:35:34.249Z,20.56
2018-10-01T10:36:34.255Z,20.56
2018-10-01T10:37:34.297Z,20.54
2018-10-01T10:38:34.381Z,20.56
2018-10-01T10:39:34.441Z,20.56
2018-10-01T10:40:34.439Z,20.58
2018-10-01T10:41:34.535Z,20.58
2018-10-01T10:42:34.536Z,20.61
2018-10-01T10:43:34.690Z,20.51
2018-10-01T10:44:34.639Z,20.58
2018-10-01T10:45:34.715Z,20.53
2018-10-01T10:46:34.718Z,20.59
2018-10-01T10:47:34.801Z,20.59
2018-10-01T10:48:34.809Z,20.53
2018-10-01T10:49:34.868Z,20.47
2018-10-01T10:50:35.025Z,20.53
2018-10-01T10:51:34.993Z,20.54
2018-10-01T10:52:34.994Z,20.56
2018-10-01T10:53:35.051Z,20.50
2018-10-01T10:54:35.080Z,20.53
2018-10-01T10:55:35.153Z,20.59
2018-10-01T10:56:35.313Z,20.56
2018-10-01T10:57:35.233Z,20.62
2018-10-01T10:58:35.280Z,20.53
2018-10-01T10:59:35.332Z,20.61
2018-10-01T11:00:35.377Z,20.69
2018-10-01T11:01:35.393Z,20.79
2018-10-01T11:02:35.495Z,20.76
2018-10-01T11:03:35.518Z,20.83
2018-10-01T11:04:35.566Z,20.96
2018-10-01T11:05:35.584Z,21.06
2018-10-01T11:06:35.663Z,21.08
2018-10-01T11:07:35.695Z,21.16
2018-10-01T11:08:35.773Z,21.34
2018-10-01T11:09:36.084Z,21.30
2018-10-01T11:10:35.846Z,21.38
2018-10-01T11:11:35.931Z,21.42
2018-10-01T11:12:35.950Z,21.46
2018-10-01T11:13:36.005Z,21.51
2018-10-01T11:14:36.238Z,21.46
2018-10-01T11:15:36.068Z,21.48
2018-10-01T11:16:36.141Z,21.48
2018-10-01T11:17:36.189Z,21.54
2018-10-01T11:18:36.392Z,21.51
2018-10-01T11:19:36.264Z,21.54
2018-10-01T11:20:36.437Z,21.42
2018-10-01T11:21:36.546Z,21.34
2018-10-01T11:22:36.392Z,21.41
2018-10-01T11:23:36.472Z,21.30
2018-10-01T11:24:36.507Z,21.41
2018-10-01T11:25:36.686Z,21.30
2018-10-01T11:26:36.584Z,21.36
2018-10-01T11:27:36.695Z,21.38
2018-10-01T11:28:36.685Z,21.48
2018-10-01T11:29:36.750Z,21.53
2018-10-01T11:30:36.810Z,21.71
2018-10-01T11:31:37.104Z,21.69
2018-10-01T11:32:36.893Z,21.91
2018-10-01T11:33:36.948Z,21.81
2018-10-01T11:34:37.092Z,21.79
2018-10-01T11:35:37.032Z,21.76
2018-10-01T11:36:37.078Z,21.78
2018-10-01T11:37:37.268Z,21.67
2018-10-01T11:38:37.175Z,21.56
2018-10-01T11:39:37.368Z,21.59
2018-10-01T11:40:37.274Z,21.56
2018-10-01T11:41:37.337Z,21.53
2018-10-01T11:42:37.638Z,21.42
2018-10-01T11:43:37.460Z,21.50
2018-10-01T11:44:37.469Z,21.44
2018-10-01T11:45:37.555Z,21.46
2018-10-01T11:46:37.576Z,21.44
2018-10-01T11:47:37.713Z,21.38
2018-10-01T11:48:37.645Z,21.38
2018-10-01T11:49:37.719Z,21.36
2018-10-01T11:50:37.806Z,21.36
2018-10-01T11:51:37.846Z,21.41
2018-10-01T11:52:37.958Z,21.44
2018-10-01T11:53:37.918Z,21.42
2018-10-01T11:54:38.000Z,21.51
2018-10-01T11:55:38.001Z,21.46
2018-10-01T11:56:38.052Z,21.50
2018-10-01T11:57:38.210Z,21.54
2018-10-01T11:58:38.210Z,21.61
2018-10-01T11:59:38.205Z,21.61
2018-10-01T12:00:38.232Z,21.76
2018-10-01T12:01:38.291Z,21.74
2018-10-01T12:02:38.427Z,21.78
2018-10-01T12:03:38.487Z,21.83
2018-10-01T12:04:38.422Z,21.81
2018-10-01T12:05:38.460Z,21.79
2018-10-01T12:06:38.527Z,21.79
2018-10-01T12:07:38.559Z,21.79
2018-10-01T12:08:38.723Z,21.79
2018-10-01T12:09:38.859Z,21.97
2018-10-01T12:10:38.925Z,21.97
2018-10-01T12:11:38.758Z,22.14
2018-10-01T12:12:38.823Z,22.35
2018-10-01T12:13:38.878Z,22.47
2018-10-01T12:14:38.960Z,22.67
2018-10-01T12:15:39.020Z,22.69
2018-10-01T12:16:39.003Z,22.67
2018-10-01T12:17:39.033Z,22.75
2018-10-01T12:18:39.118Z,22.78
2018-10-01T12:19:39.154Z,22.83
2018-10-01T12:20:39.201Z,22.93
2018-10-01T12:21:39.294Z,23.05
2018-10-01T12:22:39.318Z,23.27
2018-10-01T12:23:39.398Z,23.26
2018-10-01T12:24:39.515Z,23.38
2018-10-01T12:25:39.490Z,23.24
2018-10-01T12:26:39.516Z,23.17
2018-10-01T12:27:39.681Z,23.38
2018-10-01T12:28:39.600Z,23.31
2018-10-01T12:29:39.759Z,23.45
2018-10-01T12:30:39.703Z,23.65
2018-10-01T12:31:39.754Z,24.04
2018-10-01T12:32:39.804Z,24.08
2018-10-01T12:33:39.954Z,24.08
2018-10-01T12:34:39.901Z,24.56
2018-10-01T12:35:39.958Z,24.64
2018-10-01T12:36:40.015Z,24.75
2018-10-01T12:37:40.049Z,24.90
2018-10-01T12:38:40.100Z,25.05
2018-10-01T12:39:40.381Z,25.00
2018-10-01T12:40:40.212Z,24.88
2018-10-01T12:41:40.258Z,24.98
2018-10-01T12:42:40.325Z,24.90
2018-10-01T12:43:40.385Z,24.63
2018-10-01T12:44:40.423Z,24.59
2018-10-01T12:45:40.537Z,24.54
2018-10-01T12:46:40.532Z,24.50
2018-10-01T12:47:40.565Z,24.63
2018-10-01T12:48:40.640Z,24.59
2018-10-01T12:49:40.676Z,24.50
2018-10-01T12:50:40.734Z,24.63
2018-10-01T12:51:40.916Z,24.31
2018-10-01T12:52:40.811Z,24.22